Data for 02/14/2009

Time Sea-Level Adjusted Pressure Absolute Pressure Temperature Relative Humidity Dew Point   
(mb) (inHg) (mb) (inHg) (C) (F) (%) (C) (F)
00:05 1013 29.91 842 24.86 -7.3 19 85 -9.3 15.2
00:10 1013 29.91 842 24.86 -7.3 18.9 86 -9.2 15.4
00:15 1013 29.91 842 24.86 -7.3 18.8 86 -9.3 15.3
00:20 1013 29.91 842 24.86 -7.3 18.8 85 -9.4 15.1
00:25 1013 29.91 842 24.86 -7.4 18.7 86 -9.4 15.1
00:30 1013 29.91 842 24.86 -7.4 18.7 87 -9.3 15.3
00:35 1013 29.91 842 24.86 -7.5 18.6 87 -9.3 15.3
00:40 1013 29.91 842 24.86 -7.5 18.5 87 -9.3 15.2
00:45 1013 29.91 842 24.86 -7.5 18.5 87 -9.4 15.2
00:50 1013 29.91 842 24.86 -7.6 18.4 87 -9.4 15.1
00:55 1012 29.88 842 24.86 -7.6 18.4 87 -9.4 15
01:00 1012 29.88 842 24.86 -7.6 18.4 87 -9.4 15.1
01:05 1012 29.88 841 24.83 -7.6 18.4 87 -9.4 15.1
01:10 1012 29.88 841 24.83 -7.6 18.3 87 -9.4 15
01:15 1012 29.88 841 24.83 -7.6 18.3 86 -9.5 14.9
01:20 1012 29.88 841 24.83 -7.6 18.3 87 -9.4 15.1
01:25 1012 29.88 841 24.83 -7.7 18.2 87 -9.4 15.1
01:30 1012 29.88 841 24.83 -7.7 18.2 87 -9.5 15
01:35 1012 29.88 841 24.83 -7.6 18.3 86 -9.5 14.8
01:40 1012 29.88 841 24.83 -7.6 18.3 86 -9.6 14.8
01:45 1012 29.88 841 24.83 -7.5 18.4 85 -9.6 14.7
01:50 1012 29.88 841 24.83 -7.5 18.4 85 -9.6 14.8
01:55 1012 29.88 842 24.86 -7.6 18.4 85 -9.6 14.7
02:00 1012 29.88 842 24.86 -7.6 18.4 86 -9.5 14.9
02:05 1012 29.88 842 24.86 -7.6 18.4 85 -9.7 14.6
02:10 1013 29.91 842 24.86 -7.5 18.5 85 -9.6 14.7
02:15 1012 29.88 842 24.86 -7.5 18.4 85 -9.6 14.6
02:20 1012 29.88 842 24.86 -7.5 18.5 84 -9.7 14.5
02:25 1012 29.88 842 24.86 -7.5 18.5 85 -9.7 14.6
02:30 1012 29.88 842 24.86 -7.5 18.5 84 -9.7 14.5
02:35 1012 29.88 842 24.86 -7.5 18.5 85 -9.7 14.6
02:40 1012 29.88 842 24.86 -7.5 18.5 85 -9.7 14.6
02:45 1012 29.88 841 24.83 -7.5 18.4 85 -9.6 14.8
02:50 1012 29.88 841 24.83 -7.6 18.3 85 -9.6 14.6
02:55 1012 29.88 841 24.83 -7.6 18.4 85 -9.6 14.7
03:00 1012 29.88 841 24.83 -7.6 18.4 85 -9.6 14.6
03:05 1012 29.88 841 24.83 -7.6 18.4 85 -9.7 14.6
03:10 1012 29.88 841 24.83 -7.6 18.3 85 -9.7 14.5
03:15 1012 29.88 841 24.83 -7.6 18.3 84 -9.8 14.3
03:20 1012 29.88 841 24.83 -7.6 18.3 84 -9.9 14.2
03:25 1012 29.88 841 24.83 -7.6 18.4 84 -9.9 14.2
03:30 1012 29.88 841 24.83 -7.6 18.3 84 -9.9 14.2
03:35 1012 29.88 841 24.83 -7.6 18.3 83 -10 14
03:40 1012 29.88 841 24.83 -7.6 18.3 83 -10 14
03:45 1012 29.88 841 24.83 -7.7 18.2 83 -10.1 13.8
03:50 1012 29.88 841 24.83 -7.7 18.2 83 -10.1 13.8
03:55 1012 29.88 841 24.83 -7.7 18.2 83 -10.1 13.8
04:00 1012 29.88 841 24.83 -7.7 18.2 82 -10.2 13.6
04:05 1012 29.88 841 24.83 -7.7 18.2 81 -10.3 13.4
04:10 1012 29.88 841 24.83 -7.7 18.2 81 -10.3 13.4
04:15 1012 29.88 841 24.83 -7.7 18.2 82 -10.2 13.6
04:20 1012 29.88 841 24.83 -7.7 18.2 82 -10.2 13.6
04:25 1012 29.88 841 24.83 -7.7 18.2 81 -10.4 13.3
04:30 1012 29.88 841 24.83 -7.7 18.2 81 -10.5 13.1
04:35 1012 29.88 841 24.83 -7.7 18.2 80 -10.5 13.1
04:40 1012 29.88 841 24.83 -7.7 18.2 81 -10.4 13.2
04:45 1012 29.88 841 24.83 -7.7 18.2 81 -10.4 13.2
04:50 1012 29.88 841 24.83 -7.7 18.1 81 -10.5 13.2
04:55 1012 29.88 841 24.83 -7.7 18.1 80 -10.6 13
05:00 1012 29.88 841 24.83 -7.7 18.1 80 -10.6 12.9
05:05 1012 29.88 841 24.83 -7.8 18 80 -10.6 12.9
05:10 1012 29.88 841 24.83 -7.8 17.9 80 -10.7 12.7
05:15 1012 29.88 841 24.83 -7.9 17.7 80 -10.9 12.4
05:20 1012 29.88 841 24.83 -8.1 17.5 80 -11 12.2
05:25 1011 29.85 841 24.83 -8.1 17.4 80 -11 12.3
05:30 1011 29.85 841 24.83 -8.1 17.5 81 -10.8 12.5
05:35 1011 29.85 841 24.83 -8.1 17.5 81 -10.8 12.5
05:40 1011 29.85 841 24.83 -8.1 17.4 81 -10.8 12.5
05:45 1011 29.85 841 24.83 -8.1 17.4 80 -11 12.2
05:50 1011 29.85 841 24.83 -8.1 17.4 80 -10.9 12.4
05:55 1011 29.85 841 24.83 -8 17.6 81 -10.7 12.8
06:00 1011 29.85 841 24.83 -7.9 17.8 81 -10.6 12.8
06:05 1011 29.85 841 24.83 -7.9 17.9 81 -10.6 13
06:10 1011 29.85 841 24.83 -7.9 17.7 81 -10.7 12.8
06:15 1011 29.85 841 24.83 -7.9 17.8 80 -10.7 12.7
06:20 1011 29.85 841 24.83 -7.9 17.8 81 -10.7 12.8
06:25 1011 29.85 841 24.83 -8 17.6 79 -11 12.3
06:30 1011 29.85 841 24.83 -8.2 17.3 80 -11.1 12
06:35 1011 29.85 841 24.83 -8.2 17.2 80 -11.1 12.1
06:40 1011 29.85 841 24.83 -8.2 17.3 80 -11.1 12
06:45 1011 29.85 841 24.83 -8.1 17.3 80 -11.1 12.1
06:50 1011 29.85 841 24.83 -8.1 17.4 80 -11 12.1
06:55 1011 29.85 841 24.83 -8.1 17.4 79 -11.1 12
07:00 1011 29.85 841 24.83 -8 17.5 78 -11.2 11.9
07:05 1011 29.85 841 24.83 -8 17.6 79 -11 12.2
07:10 1011 29.85 841 24.83 -8 17.7 78 -11.1 12
07:15 1011 29.85 841 24.83 -7.9 17.7 78 -11.2 11.8
07:20 1011 29.85 841 24.83 -8 17.6 78 -11.2 11.9
07:25 1011 29.85 841 24.83 -8 17.6 78 -11.2 11.8
07:30 1011 29.85 841 24.83 -8 17.6 78 -11.2 11.8
07:35 1011 29.85 841 24.83 -8.1 17.5 78 -11.3 11.7
07:40 1012 29.88 841 24.83 -8.1 17.5 78 -11.3 11.7
07:45 1012 29.88 841 24.83 -8.1 17.4 78 -11.3 11.6
07:50 1012 29.88 841 24.83 -8.1 17.4 78 -11.3 11.7
07:55 1012 29.88 841 24.83 -8.1 17.4 78 -11.3 11.7
08:00 1012 29.88 841 24.83 -8 17.5 78 -11.2 11.9
08:05 1012 29.88 841 24.83 -8.5 16.8 86 -10.4 13.3
08:10 1012 29.88 841 24.83 -9.1 15.6 90 -10.5 13.1
08:15 1012 29.88 841 24.83 -9.3 15.3 90 -10.6 13
08:20 1012 29.88 841 24.83 -9.2 15.4 90 -10.6 13
08:25 1012 29.88 841 24.83 -9 15.7 87 -10.8 12.5
08:30 1012 29.88 841 24.83 -8.5 16.7 81 -11.2 11.9
08:35 1012 29.88 841 24.83 -8 17.5 78 -11.2 11.8
08:40 1012 29.88 841 24.83 -7.8 17.9 77 -11.2 11.9
08:45 1012 29.88 841 24.83 -7.7 18.1 77 -11.1 12.1
08:50 1012 29.88 841 24.83 -7.7 18.2 76 -11.2 11.8
08:55 1012 29.88 841 24.83 -7.7 18.2 77 -11.1 12.1
09:00 1012 29.88 841 24.83 -7.6 18.3 76 -11.2 11.8
09:05 1012 29.88 841 24.83 -7.6 18.4 75 -11.3 11.7
09:10 1012 29.88 841 24.83 -7.6 18.4 75 -11.3 11.7
09:15 1012 29.88 841 24.83 -7.5 18.4 75 -11.3 11.7
09:20 1012 29.88 841 24.83 -7.4 18.8 74 -11.3 11.7
09:25 1012 29.88 841 24.83 -7.4 18.8 75 -11.1 12
09:30 1012 29.88 841 24.83 -7.5 18.6 75 -11.1 12
09:35 1012 29.88 841 24.83 -7.4 18.6 74 -11.2 11.8
09:40 1012 29.88 841 24.83 -7.3 18.8 74 -11.2 11.8
09:45 1012 29.88 841 24.83 -7.1 19.2 72 -11.3 11.7
09:50 1012 29.88 842 24.86 -6.9 19.7 71 -11.2 11.8
09:55 1012 29.88 842 24.86 -6.4 20.4 70 -11 12.1
10:00 1012 29.88 842 24.86 -6.1 21 69 -11 12.2
10:05 1012 29.88 842 24.86 -6.2 20.8 73 -10.4 13.3
10:10 1012 29.88 842 24.86 -6.2 20.9 75 -9.8 14.3
10:15 1012 29.88 842 24.86 -6.5 20.4 74 -10.4 13.3
10:20 1012 29.88 842 24.86 -6.8 19.8 78 -10 14.1
10:25 1012 29.88 842 24.86 -6.4 20.5 78 -9.6 14.7
10:30 1013 29.91 842 24.86 -6.5 20.4 76 -10.1 13.9
10:35 1013 29.91 842 24.86 -6.5 20.2 78 -9.8 14.4
10:40 1013 29.91 842 24.86 -6.9 19.6 78 -10.1 13.8
10:45 1013 29.91 842 24.86 -6.7 20 79 -9.7 14.6
10:50 1013 29.91 842 24.86 -6.2 20.9 75 -9.9 14.1
10:55 1013 29.91 842 24.86 -5.8 21.6 74 -9.6 14.7
11:00 1013 29.91 842 24.86 -5.8 21.5 75 -9.5 14.9
11:05 1013 29.91 842 24.86 -6 21.3 79 -9 15.9
11:10 1013 29.91 842 24.86 -5.8 21.6 73 -9.9 14.1
11:15 1013 29.91 842 24.86 -6 21.2 76 -9.5 14.8
11:20 1013 29.91 842 24.86 -6.6 20.1 79 -9.7 14.6
11:25 1013 29.91 842 24.86 -5.8 21.5 72 -10.1 13.8
11:30 1013 29.91 842 24.86 -5.1 22.8 72 -9.5 14.9
11:35 1013 29.91 842 24.86 -4.8 23.3 69 -9.7 14.5
11:40 1013 29.91 842 24.86 -4.7 23.5 72 -9.1 15.6
11:45 1013 29.91 842 24.86 -4.8 23.4 70 -9.4 15.1
11:50 1013 29.91 842 24.86 -4.2 24.4 67 -9.5 14.9
11:55 1013 29.91 842 24.86 -3.6 25.6 64 -9.4 15.2
12:00 1013 29.91 842 24.86 -3.6 25.4 64 -9.5 14.9
12:05 1013 29.91 842 24.86 -3.9 25 69 -8.8 16.1
12:10 1013 29.91 842 24.86 -3.8 25.2 66 -9.3 15.3
12:15 1012 29.88 842 24.86 -3.6 25.4 64 -9.4 15.1
12:20 1012 29.88 842 24.86 -3.4 25.9 63 -9.5 14.9
12:25 1012 29.88 842 24.86 -3.4 25.8 63 -9.5 14.9
12:30 1012 29.88 842 24.86 -4.1 24.6 68 -9.1 15.6
12:35 1012 29.88 842 24.86 -4.2 24.5 67 -9.3 15.2
12:40 1012 29.88 842 24.86 -4.2 24.4 69 -9.2 15.5
12:45 1012 29.88 842 24.86 -4.4 24.2 65 -9.9 14.2
12:50 1012 29.88 842 24.86 -4.5 23.9 69 -9.3 15.3
12:55 1012 29.88 842 24.86 -4.4 24.1 66 -9.8 14.4
13:00 1012 29.88 841 24.83 -3.7 25.3 63 -9.7 14.5
13:05 1012 29.88 841 24.83 -3.5 25.7 63 -9.6 14.6
13:10 1012 29.88 841 24.83 -3.7 25.4 65 -9.4 15.1
13:15 1012 29.88 841 24.83 -5 22.9 69 -10 14.1
13:20 1012 29.88 841 24.83 -4.5 23.9 64 -10.3 13.4
13:25 1012 29.88 841 24.83 -4.3 24.3 67 -9.5 14.9
13:30 1012 29.88 841 24.83 -4.5 23.8 64 -10.4 13.3
13:35 1012 29.88 841 24.83 -3.6 25.5 63 -9.7 14.6
13:40 1012 29.88 841 24.83 -4.4 24.2 66 -9.8 14.4
13:45 1012 29.88 841 24.83 -4.3 24.3 64 -10.2 13.7
13:50 1012 29.88 841 24.83 -4 24.8 65 -9.6 14.7
13:55 1012 29.88 841 24.83 -4.8 23.4 69 -9.6 14.7
14:00 1012 29.88 841 24.83 -4.6 23.7 68 -9.6 14.7
14:05 1012 29.88 841 24.83 -4 24.7 66 -9.5 15
14:10 1012 29.88 841 24.83 -3.6 25.5 63 -9.6 14.6
14:15 1012 29.88 841 24.83 -3.5 25.7 66 -9 15.7
14:20 1012 29.88 841 24.83 -3.8 25.1 67 -9.2 15.5
14:25 1012 29.88 842 24.86 -4.3 24.3 68 -9.2 15.4
14:30 1012 29.88 842 24.86 -3.7 25.4 65 -9.3 15.3
14:35 1012 29.88 842 24.86 -3.1 26.5 64 -8.9 16
14:40 1012 29.88 842 24.86 -3.3 26 63 -9.5 14.9
14:45 1012 29.88 842 24.86 -3 26.7 62 -9.2 15.5
14:50 1012 29.88 842 24.86 -3.9 24.9 68 -9.1 15.7
14:55 1012 29.88 842 24.86 -4.2 24.5 66 -9.6 14.8
15:00 1012 29.88 842 24.86 -3.7 25.4 66 -9.2 15.5
15:05 1012 29.88 842 24.86 -3.9 24.9 65 -9.6 14.7
15:10 1012 29.88 842 24.86 -3.2 26.2 63 -9.3 15.3
15:15 1013 29.91 842 24.86 -3.8 25.2 67 -9.1 15.5
15:20 1013 29.91 842 24.86 -4 24.8 67 -9.2 15.4
15:25 1013 29.91 842 24.86 -3.9 24.9 67 -9.2 15.4
15:30 1013 29.91 842 24.86 -3.9 24.9 66 -9.4 15.1
15:35 1013 29.91 842 24.86 -3.4 25.9 64 -9.4 15.2
15:40 1013 29.91 842 24.86 -2.9 26.7 62 -9.3 15.3
15:45 1013 29.91 842 24.86 -3.4 25.9 65 -9 15.8
15:50 1013 29.91 842 24.86 -3.7 25.3 66 -9.2 15.5
15:55 1013 29.91 842 24.86 -3.8 25.2 65 -9.4 15
16:00 1013 29.91 842 24.86 -3.6 25.4 64 -9.5 15
16:05 1013 29.91 842 24.86 -3.5 25.7 64 -9.4 15.1
16:10 1013 29.91 842 24.86 -3.3 26 64 -9.3 15.3
16:15 1013 29.91 842 24.86 -3.5 25.6 64 -9.4 15.1
16:20 1013 29.91 842 24.86 -3.6 25.5 63 -9.6 14.7
16:25 1013 29.91 842 24.86 -3.7 25.3 65 -9.4 15.1
16:30 1013 29.91 842 24.86 -3.6 25.5 64 -9.4 15
16:35 1013 29.91 842 24.86 -3.6 25.6 64 -9.4 15.1
16:40 1013 29.91 842 24.86 -3.9 24.9 65 -9.6 14.8
16:45 1013 29.91 842 24.86 -4 24.8 67 -9.2 15.4
16:50 1013 29.91 842 24.86 -4.2 24.4 68 -9.3 15.3
16:55 1013 29.91 842 24.86 -4.3 24.3 68 -9.4 15.1
17:00 1013 29.91 842 24.86 -4.4 24.2 68 -9.4 15
17:05 1013 29.91 842 24.86 -4.4 24 69 -9.3 15.3
17:10 1013 29.91 842 24.86 -4.4 24.1 69 -9.2 15.5
17:15 1013 29.91 842 24.86 -4.6 23.8 71 -9.2 15.5
17:20 1013 29.91 842 24.86 -4.7 23.6 71 -9.2 15.5
17:25 1013 29.91 843 24.89 -4.8 23.4 71 -9.2 15.5
17:30 1013 29.91 842 24.86 -4.8 23.3 72 -9.2 15.4
17:35 1013 29.91 842 24.86 -4.8 23.3 71 -9.4 15.1
17:40 1013 29.91 843 24.89 -4.9 23.2 71 -9.3 15.2
17:45 1013 29.91 843 24.89 -5 23 71 -9.4 15.1
17:50 1013 29.91 843 24.89 -5.1 22.8 72 -9.5 15
17:55 1013 29.91 843 24.89 -5.2 22.7 72 -9.6 14.8
18:00 1014 29.94 843 24.89 -5.2 22.6 72 -9.5 14.8
18:05 1014 29.94 843 24.89 -5.3 22.5 72 -9.5 14.9
18:10 1014 29.94 843 24.89 -5.4 22.3 73 -9.6 14.8
18:15 1014 29.94 843 24.89 -5.5 22.1 73 -9.5 14.9
18:20 1014 29.94 843 24.89 -5.5 22.1 74 -9.5 14.9
18:25 1014 29.94 843 24.89 -5.6 21.9 74 -9.6 14.8
18:30 1014 29.94 843 24.89 -5.6 21.8 74 -9.6 14.7
18:35 1014 29.94 843 24.89 -5.7 21.8 74 -9.6 14.7
18:40 1014 29.94 843 24.89 -5.7 21.7 74 -9.7 14.6
18:45 1014 29.94 843 24.89 -5.8 21.7 74 -9.6 14.7
18:50 1014 29.94 843 24.89 -5.8 21.6 75 -9.6 14.7
18:55 1014 29.94 843 24.89 -5.8 21.5 75 -9.5 14.8
19:00 1014 29.94 843 24.89 -5.8 21.5 76 -9.5 14.9
19:05 1014 29.94 843 24.89 -5.9 21.3 76 -9.6 14.8
19:10 1014 29.94 843 24.89 -6 21.3 76 -9.5 14.9
19:15 1014 29.94 843 24.89 -6 21.3 76 -9.5 14.8
19:20 1014 29.94 843 24.89 -6 21.2 76 -9.6 14.7
19:25 1014 29.94 843 24.89 -6 21.2 76 -9.6 14.7
19:30 1014 29.94 843 24.89 -6.1 21.1 76 -9.6 14.7
19:35 1014 29.94 843 24.89 -6 21.1 76 -9.6 14.6
19:40 1014 29.94 843 24.89 -6 21.2 76 -9.7 14.6
19:45 1014 29.94 844 24.92 -6.1 21.1 76 -9.6 14.7
19:50 1014 29.94 844 24.92 -6.1 21.1 76 -9.6 14.7
19:55 1014 29.94 844 24.92 -6.1 21 76 -9.6 14.7
20:00 1014 29.94 844 24.92 -6.2 20.9 76 -9.7 14.6
20:05 1014 29.94 844 24.92 -6.2 20.9 76 -9.7 14.5
20:10 1014 29.94 844 24.92 -6.2 20.9 76 -9.7 14.5
20:15 1014 29.94 844 24.92 -6.2 20.8 76 -9.7 14.5
20:20 1014 29.94 844 24.92 -6.3 20.7 77 -9.7 14.5
20:25 1014 29.94 844 24.92 -6.3 20.6 77 -9.7 14.5
20:30 1015 29.97 844 24.92 -6.3 20.6 77 -9.7 14.5
20:35 1015 29.97 844 24.92 -6.4 20.4 77 -9.8 14.4
20:40 1015 29.97 844 24.92 -6.4 20.4 77 -9.8 14.4
20:45 1015 29.97 844 24.92 -6.5 20.3 78 -9.8 14.3
20:50 1015 29.97 844 24.92 -6.6 20.1 78 -9.8 14.3
20:55 1015 29.97 844 24.92 -6.7 20 79 -9.8 14.3
21:00 1015 29.97 844 24.92 -6.8 19.8 79 -9.9 14.1
21:05 1015 29.97 844 24.92 -6.8 19.7 79 -9.9 14.1
21:10 1015 29.97 844 24.92 -6.9 19.6 79 -9.9 14.1
21:15 1015 29.97 844 24.92 -6.9 19.6 79 -9.9 14.2
21:20 1015 29.97 844 24.92 -7 19.4 79 -10 14.1
21:25 1015 29.97 844 24.92 -7 19.3 80 -9.9 14.1
21:30 1015 29.97 844 24.92 -7.1 19.1 80 -10 14
21:35 1015 29.97 844 24.92 -7.1 19.1 80 -10 13.9
21:40 1015 29.97 844 24.92 -7.2 19 81 -10 14
21:45 1015 29.97 844 24.92 -7.5 18.5 82 -10.1 13.8
21:50 1015 29.97 844 24.92 -7.7 18.1 83 -10.1 13.8
21:55 1015 29.97 844 24.92 -7.8 18 83 -10.2 13.6
22:00 1015 29.97 844 24.92 -7.9 17.9 83 -10.3 13.5
22:05 1015 29.97 844 24.92 -7.9 17.9 82 -10.4 13.4
22:10 1015 29.97 844 24.92 -7.8 17.9 82 -10.3 13.4
22:15 1015 29.97 844 24.92 -7.9 17.8 82 -10.4 13.3
22:20 1015 29.97 844 24.92 -7.9 17.7 83 -10.4 13.3
22:25 1015 29.97 844 24.92 -8 17.6 83 -10.4 13.2
22:30 1015 29.97 844 24.92 -7.9 17.7 83 -10.3 13.5
22:35 1015 29.97 844 24.92 -7.8 17.9 82 -10.3 13.4
22:40 1015 29.97 844 24.92 -7.8 17.9 82 -10.3 13.4
22:45 1015 29.97 845 24.95 -8 17.7 83 -10.4 13.4
22:50 1015 29.97 845 24.95 -8.1 17.4 83 -10.4 13.2
22:55 1015 29.97 845 24.95 -8.1 17.4 83 -10.5 13.1
23:00 1015 29.97 845 24.95 -8 17.6 83 -10.4 13.2
23:05 1015 29.97 845 24.95 -7.9 17.7 83 -10.4 13.3
23:10 1015 29.97 845 24.95 -7.9 17.8 82 -10.4 13.3
23:15 1015 29.97 845 24.95 -7.8 17.9 82 -10.4 13.3
23:20 1016 30 845 24.95 -7.8 18 82 -10.3 13.4
23:25 1016 30 845 24.95 -7.8 18.1 82 -10.4 13.4
23:30 1016 30 845 24.95 -7.7 18.2 82 -10.2 13.6
23:35 1016 30 845 24.95 -7.6 18.3 82 -10.2 13.6
23:40 1016 30 845 24.95 -7.6 18.4 81 -10.2 13.6
23:45 1016 30 845 24.95 -7.6 18.4 82 -10.2 13.7
23:50 1016 30 845 24.95 -7.6 18.4 81 -10.3 13.5
23:55 1016 30 845 24.95 -7.6 18.4 81 -10.2 13.6
24:00 1016 30 845 24.95 -7.6 18.3 82 -10.3 13.5